MMTG/TGZ METAR and TAF weather

Enter ICAO airport designator
Station Type Date Time Source
MMTG METAR 2019/10/15 03:50 UTC NOAA

MMTG 150350Z 30005KT 8SM SCT090 BKN300 24/21 A2993 RMK 8/038


Station Type Date Time Source
MMTG Decoded METAR 2019/10/15 03:50 UTC NOAA

Tuxtla Gutierrez, Chis., Mexico (MMTG) 16-45N 093-07W
Oct 14, 2019 - 11:50 PM EDT / 2019.10.15 0350 UTC
Wind: from the WNW (300 degrees) at 6 MPH (5 KT):0
Visibility: 8 mile(s):0
Sky conditions: mostly cloudy
Temperature: 75 F (24 C)
Dew Point: 69 F (21 C)
Relative Humidity: 83%
Pressure (altimeter): 29.93 in. Hg (1013 hPa)
ob: MMTG 150350Z 30005KT 8SM SCT090 BKN300 24/21 A2993 RMK 8/038
cycle: 4

Station Type Date Time Source
MMTG TAF 2019/10/14 18:26 UTC NOAA

TAF MMTG 141718Z 1418/1518 30010KT P6SM SCT025 BKN300 PROB40 1501/1505 5SM TSRA BKN020CB
FM150600 00000KT P6SM BKN080
TEMPO 1512/1516 2SM BR BKN010

Example: see airport list